Time,TemperatureF,DewpointF,PressureIn,WindDirection,WindDirectionDegrees,WindSpeedMPH,WindSpeedGustMPH,Humidity,HourlyPrecipIn,Conditions,Clouds,dailyrainin,SolarRadiationWatts/m^2,SoftwareType,DateUTC
2013-06-25 00:03:00,64.8,59.2,29.99,West,269,3.5,3.5,82,0.00,CLR,FEW,0.00,0.0,WeatherDisplay:10.37,2013-06-24 22:03:00,
2013-06-25 00:09:00,65.0,59.7,29.99,West,265,4.6,4.6,83,0.00,CLR,FEW,0.00,0.0,WeatherDisplay:10.37,2013-06-24 22:09:00,
2013-06-25 00:14:00,65.1,59.8,29.99,West,268,4.6,4.6,83,0.00,CLR,FEW,0.00,0.0,WeatherDisplay:10.37,2013-06-24 22:14:00,
2013-06-25 00:19:00,65.1,59.8,29.99,West,259,3.5,3.5,83,0.00,CLR,FEW,0.00,0.0,WeatherDisplay:10.37,2013-06-24 22:19:00,
2013-06-25 00:24:00,65.0,59.7,29.99,West,268,3.5,3.5,83,0.00,CLR,FEW,0.00,0.0,WeatherDisplay:10.37,2013-06-24 22:24:00,
2013-06-25 00:30:00,64.8,59.5,29.99,West,273,5.8,5.8,83,0.00,CLR,FEW,0.00,0.0,WeatherDisplay:10.37,2013-06-24 22:30:00,
2013-06-25 00:35:00,64.8,59.2,29.98,West,262,5.8,5.8,82,0.00,CLR,FEW,0.00,0.0,WeatherDisplay:10.37,2013-06-24 22:35:00,
2013-06-25 00:40:00,64.5,59.2,29.98,West,259,6.9,6.9,83,0.00,CLR,FEW,0.00,0.0,WeatherDisplay:10.37,2013-06-24 22:40:00,
2013-06-25 00:45:00,64.5,59.2,29.98,WSW,256,7.0,7.0,83,0.00,CLR,FEW,0.00,0.0,WeatherDisplay:10.37,2013-06-24 22:45:00,
2013-06-25 00:50:00,64.5,59.2,29.98,WSW,246,6.9,6.9,83,0.00,CLR,FEW,0.00,0.0,WeatherDisplay:10.37,2013-06-24 22:50:00,
2013-06-25 00:56:00,64.6,59.7,29.98,WSW,256,6.9,6.9,84,0.00,CLR,FEW,0.00,0.0,WeatherDisplay:10.37,2013-06-24 22:56:00,
2013-06-25 01:01:00,64.5,59.6,29.98,West,277,5.8,5.8,84,0.00,CLR,FEW,0.00,0.0,WeatherDisplay:10.37,2013-06-24 23:01:00,
2013-06-25 01:06:00,64.3,59.4,29.98,WNW,300,4.6,4.6,84,0.00,CLR,FEW,0.00,0.0,WeatherDisplay:10.37,2013-06-24 23:06:00,
2013-06-25 01:11:00,64.1,59.2,29.98,West,259,6.9,6.9,84,0.00,CLR,FEW,0.00,0.0,WeatherDisplay:10.37,2013-06-24 23:11:00,
2013-06-25 01:16:00,64.0,59.1,29.98,WSW,242,3.5,3.5,84,0.00,CLR,FEW,0.00,0.0,WeatherDisplay:10.37,2013-06-24 23:16:00,
2013-06-25 01:21:00,64.1,59.2,29.98,West,267,5.8,5.8,84,0.00,CLR,FEW,0.00,0.0,WeatherDisplay:10.37,2013-06-24 23:21:00,
2013-06-25 01:27:00,64.1,59.2,29.98,West,275,4.6,4.6,84,0.00,CLR,FEW,0.00,0.0,WeatherDisplay:10.37,2013-06-24 23:27:00,
2013-06-25 01:32:00,64.1,59.5,29.98,WNW,283,6.9,6.9,85,0.00,CLR,FEW,0.00,0.0,WeatherDisplay:10.37,2013-06-24 23:32:00,
2013-06-25 01:37:00,64.1,59.5,29.98,West,273,4.0,4.0,85,0.00,CLR,FEW,0.00,0.0,WeatherDisplay:10.37,2013-06-24 23:37:00,
2013-06-25 01:42:00,64.1,59.5,29.97,WSW,254,5.8,5.8,85,0.00,CLR,FEW,0.00,0.0,WeatherDisplay:10.37,2013-06-24 23:42:00,
2013-06-25 01:48:00,64.1,59.5,29.98,SW,220,5.8,5.8,85,0.00,CLR,FEW,0.00,0.0,WeatherDisplay:10.37,2013-06-24 23:48:00,
2013-06-25 01:53:00,64.2,59.6,29.98,WNW,295,3.5,3.5,85,0.00,CLR,FEW,0.00,0.0,WeatherDisplay:10.37,2013-06-24 23:53:00,
2013-06-25 01:58:00,64.3,59.7,29.97,West,266,4.6,4.6,85,0.00,CLR,FEW,0.00,0.0,WeatherDisplay:10.37,2013-06-24 23:58:00,
2013-06-25 02:04:00,64.4,59.8,29.98,WSW,251,4.6,4.6,85,0.00,CLR,FEW,0.00,0.0,WeatherDisplay:10.37,2013-06-25 00:04:00,
2013-06-25 02:09:00,64.5,59.9,29.97,West,277,2.0,2.0,85,0.00,CLR,FEW,0.00,0.0,WeatherDisplay:10.37,2013-06-25 00:09:00,
2013-06-25 02:14:00,64.5,59.9,29.97,West,277,3.5,3.5,85,0.00,CLR,FEW,0.00,0.0,WeatherDisplay:10.37,2013-06-25 00:14:00,
2013-06-25 02:20:00,64.6,60.0,29.97,West,273,4.0,4.0,85,0.00,CLR,FEW,0.00,0.0,WeatherDisplay:10.37,2013-06-25 00:20:00,
2013-06-25 02:25:00,64.5,59.6,29.97,WSW,244,6.0,6.0,84,0.00,CLR,FEW,0.00,0.0,WeatherDisplay:10.37,2013-06-25 00:25:00,
2013-06-25 02:31:00,64.4,59.5,29.97,WSW,257,2.0,7.0,84,0.00,CLR,FEW,0.00,0.0,WeatherDisplay:10.37,2013-06-25 00:31:00,
2013-06-25 02:36:00,64.7,59.8,29.97,West,265,3.5,3.5,84,0.00,CLR,FEW,0.00,0.0,WeatherDisplay:10.37,2013-06-25 00:36:00,
2013-06-25 02:42:00,64.8,59.9,29.97,West,275,4.6,4.6,84,0.00,CLR,FEW,0.00,0.0,WeatherDisplay:10.37,2013-06-25 00:42:00,
2013-06-25 02:48:00,64.8,59.9,29.96,West,277,4.6,4.6,84,0.00,CLR,FEW,0.00,0.0,WeatherDisplay:10.37,2013-06-25 00:48:00,
2013-06-25 02:53:00,64.8,59.9,29.96,West,277,4.6,4.6,84,0.00,CLR,FEW,0.00,0.0,WeatherDisplay:10.37,2013-06-25 00:53:00,
2013-06-25 02:59:00,64.7,59.8,29.96,West,262,4.0,4.0,84,0.00,CLR,FEW,0.00,0.0,WeatherDisplay:10.37,2013-06-25 00:59:00,
2013-06-25 03:04:00,64.7,59.8,29.96,West,266,4.0,4.0,84,0.00,CLR,FEW,0.00,0.0,WeatherDisplay:10.37,2013-06-25 01:04:00,
2013-06-25 03:10:00,64.7,59.8,29.96,WSW,251,3.5,3.5,84,0.00,CLR,FEW,0.00,0.0,WeatherDisplay:10.37,2013-06-25 01:10:00,
2013-06-25 03:15:00,64.7,59.8,29.96,West,267,3.5,3.5,84,0.00,CLR,FEW,0.00,0.0,WeatherDisplay:10.37,2013-06-25 01:15:00,
2013-06-25 03:20:00,64.7,60.1,29.96,West,267,3.5,3.5,85,0.00,CLR,FEW,0.00,0.0,WeatherDisplay:10.37,2013-06-25 01:20:00,
2013-06-25 03:26:00,64.8,60.2,29.96,West,265,4.6,4.6,85,0.00,CLR,FEW,0.00,0.0,WeatherDisplay:10.37,2013-06-25 01:26:00,
2013-06-25 03:31:00,64.8,60.2,29.96,West,260,5.8,5.8,85,0.00,CLR,FEW,0.00,0.0,WeatherDisplay:10.37,2013-06-25 01:31:00,
2013-06-25 03:36:00,64.8,60.2,29.96,WSW,256,4.0,4.0,85,0.00,CLR,FEW,0.00,0.0,WeatherDisplay:10.37,2013-06-25 01:36:00,
2013-06-25 03:41:00,64.7,60.1,29.96,WSW,257,3.5,3.5,85,0.00,CLR,FEW,0.00,0.0,WeatherDisplay:10.37,2013-06-25 01:41:00,
2013-06-25 03:46:00,64.7,60.4,29.96,WSW,246,6.9,6.9,86,0.00,CLR,FEW,0.00,0.0,WeatherDisplay:10.37,2013-06-25 01:46:00,
2013-06-25 03:51:00,64.6,60.3,29.96,West,262,3.5,3.5,86,0.00,CLR,FEW,0.00,0.0,WeatherDisplay:10.37,2013-06-25 01:51:00,
2013-06-25 03:57:00,64.5,60.2,29.96,WSW,244,3.5,3.5,86,0.00,CLR,FEW,0.00,0.0,WeatherDisplay:10.37,2013-06-25 01:57:00,
2013-06-25 04:03:00,64.6,60.3,29.96,West,261,3.5,3.9,86,0.00,CLR,FEW,0.00,0.0,WeatherDisplay:10.37,2013-06-25 02:03:00,
2013-06-25 04:08:00,64.6,60.3,29.96,West,260,2.3,2.3,86,0.00,CLR,FEW,0.00,0.0,WeatherDisplay:10.37,2013-06-25 02:08:00,
2013-06-25 04:13:00,64.5,60.2,29.96,WSW,252,5.8,5.8,86,0.00,CLR,FEW,0.00,0.0,WeatherDisplay:10.37,2013-06-25 02:13:00,
2013-06-25 04:19:00,64.4,60.4,29.96,WSW,257,3.5,3.5,87,0.00,CLR,FEW,0.00,0.0,WeatherDisplay:10.37,2013-06-25 02:19:00,
2013-06-25 04:24:00,64.4,60.4,29.96,West,266,3.5,3.5,87,0.00,CLR,FEW,0.00,0.0,WeatherDisplay:10.37,2013-06-25 02:24:00,
2013-06-25 04:30:00,64.2,60.2,29.96,West,261,3.5,3.5,87,0.00,CLR,FEW,0.00,0.0,WeatherDisplay:10.37,2013-06-25 02:30:00,
2013-06-25 04:35:00,64.0,60.1,29.96,West,259,3.5,3.5,87,0.00,CLR,FEW,0.00,0.0,WeatherDisplay:10.37,2013-06-25 02:35:00,
2013-06-25 04:40:00,63.9,60.0,29.96,West,259,1.2,1.2,87,0.00,CLR,FEW,0.00,0.0,WeatherDisplay:10.37,2013-06-25 02:40:00,
2013-06-25 04:45:00,63.9,60.3,29.96,WSW,254,3.5,3.5,88,0.00,CLR,FEW,0.00,0.0,WeatherDisplay:10.37,2013-06-25 02:45:00,
2013-06-25 04:51:00,63.9,60.3,29.96,WSW,253,3.5,3.5,88,0.00,CLR,FEW,0.00,0.0,WeatherDisplay:10.37,2013-06-25 02:51:00,
2013-06-25 04:56:00,64.0,60.4,29.96,WSW,253,1.0,1.0,88,0.00,CLR,FEW,0.00,0.0,WeatherDisplay:10.37,2013-06-25 02:56:00,
2013-06-25 05:01:00,64.1,60.5,29.96,WSW,253,3.5,3.5,88,0.00,CLR,FEW,0.00,0.0,WeatherDisplay:10.37,2013-06-25 03:01:00,
2013-06-25 05:06:00,64.2,60.9,29.97,WSW,253,3.5,3.5,89,0.00,OVC,FEW,0.00,0.0,WeatherDisplay:10.37,2013-06-25 03:06:00,
2013-06-25 05:12:00,64.3,61.0,29.97,WSW,253,2.3,2.3,89,0.00,OVC,FEW,0.00,0.0,WeatherDisplay:10.37,2013-06-25 03:12:00,
2013-06-25 05:17:00,64.3,60.7,29.97,WSW,253,2.3,0.0,88,0.00,OVC,FEW,0.00,0.0,WeatherDisplay:10.37,2013-06-25 03:17:00,
2013-06-25 05:22:00,64.3,60.7,29.96,WSW,250,3.5,3.5,88,0.00,OVC,FEW,0.00,0.0,WeatherDisplay:10.37,2013-06-25 03:22:00,
2013-06-25 05:28:00,64.5,60.9,29.96,WSW,250,2.3,2.3,88,0.00,OVC,FEW,0.00,0.0,WeatherDisplay:10.37,2013-06-25 03:28:00,
2013-06-25 05:33:00,64.7,61.1,29.96,WSW,240,3.5,3.5,88,0.00,OVC,FEW,0.00,0.0,WeatherDisplay:10.37,2013-06-25 03:33:00,
2013-06-25 05:38:00,65.0,61.4,29.96,WSW,247,5.8,5.8,88,0.00,OVC,FEW,0.00,0.0,WeatherDisplay:10.37,2013-06-25 03:38:00,
2013-06-25 05:44:00,65.1,61.1,29.97,NW,317,8.1,8.1,87,0.00,OVC,FEW,0.00,0.0,WeatherDisplay:10.37,2013-06-25 03:44:00,
2013-06-25 05:49:00,65.0,61.0,29.97,West,269,8.1,8.1,87,0.00,OVC,FEW,0.00,0.0,WeatherDisplay:10.37,2013-06-25 03:49:00,
2013-06-25 05:54:00,65.0,60.7,29.97,SW,234,6.9,6.9,86,0.00,OVC,FEW,0.00,0.0,WeatherDisplay:10.37,2013-06-25 03:54:00,
2013-06-25 06:00:00,65.2,60.9,29.97,West,266,6.9,6.9,86,0.00,OVC,FEW,0.00,0.0,WeatherDisplay:10.37,2013-06-25 04:00:00,
2013-06-25 06:01:00,65.3,61.0,29.97,West,273,6.0,6.0,86,0.00,OVC,FEW,0.00,0.0,WeatherDisplay:10.37,2013-06-25 04:01:00,
2013-06-25 06:02:00,65.3,61.0,29.97,West,259,5.8,5.8,86,0.00,OVC,FEW,0.00,0.0,WeatherDisplay:10.37,2013-06-25 04:02:00,
2013-06-25 06:07:00,65.4,60.8,29.97,West,281,4.0,4.0,85,0.00,OVC,FEW,0.00,0.0,WeatherDisplay:10.37,2013-06-25 04:07:00,
2013-06-25 06:12:00,65.3,60.7,29.97,WNW,295,5.8,5.8,85,0.00,OVC,FEW,0.00,0.0,WeatherDisplay:10.37,2013-06-25 04:12:00,
2013-06-25 06:17:00,65.1,60.1,29.97,WNW,293,3.5,3.5,84,0.00,OVC,FEW,0.00,0.0,WeatherDisplay:10.37,2013-06-25 04:17:00,
2013-06-25 06:22:00,65.1,60.1,29.97,West,265,3.5,3.5,84,0.00,OVC,FEW,0.00,0.0,WeatherDisplay:10.37,2013-06-25 04:22:00,
2013-06-25 06:27:00,65.3,60.3,29.97,West,270,4.6,4.6,84,0.00,OVC,FEW,0.00,0.0,WeatherDisplay:10.37,2013-06-25 04:27:00,
2013-06-25 06:32:00,65.4,60.4,29.97,West,275,5.8,5.8,84,0.00,OVC,FEW,0.00,0.0,WeatherDisplay:10.37,2013-06-25 04:32:00,
2013-06-25 06:37:00,65.4,60.4,29.98,West,275,3.5,3.5,84,0.00,OVC,FEW,0.00,0.0,WeatherDisplay:10.37,2013-06-25 04:37:00,
2013-06-25 06:42:00,65.5,60.2,29.98,West,261,5.8,5.8,83,0.00,OVC,FEW,0.00,0.0,WeatherDisplay:10.37,2013-06-25 04:42:00,
2013-06-25 06:47:00,65.6,60.3,29.98,WSW,247,5.8,5.8,83,0.00,OVC,FEW,0.00,0.0,WeatherDisplay:10.37,2013-06-25 04:47:00,
2013-06-25 06:52:00,65.8,60.5,29.98,West,269,4.6,4.6,83,0.00,OVC,FEW,0.00,0.0,WeatherDisplay:10.37,2013-06-25 04:52:00,
2013-06-25 06:57:00,66.1,60.4,29.98,West,269,3.5,3.5,82,0.00,OVC,FEW,0.00,0.0,WeatherDisplay:10.37,2013-06-25 04:57:00,
2013-06-25 07:02:00,66.2,60.5,29.98,West,259,3.5,3.5,82,0.00,OVC,FEW,0.00,0.0,WeatherDisplay:10.37,2013-06-25 05:02:00,
2013-06-25 07:07:00,66.2,60.5,29.98,West,271,1.2,0.0,82,0.00,OVC,FEW,0.00,0.0,WeatherDisplay:10.37,2013-06-25 05:07:00,
2013-06-25 07:12:00,66.3,60.6,29.98,West,271,3.5,3.5,82,0.00,OVC,FEW,0.00,0.0,WeatherDisplay:10.37,2013-06-25 05:12:00,
2013-06-25 07:17:00,66.4,60.7,29.98,West,266,5.8,5.8,82,0.00,OVC,FEW,0.00,0.0,WeatherDisplay:10.37,2013-06-25 05:17:00,
2013-06-25 07:22:00,66.7,61.0,29.98,West,280,4.6,4.6,82,0.00,OVC,FEW,0.00,0.0,WeatherDisplay:10.37,2013-06-25 05:22:00,
2013-06-25 07:27:00,67.0,61.3,29.98,West,273,4.6,4.6,82,0.00,OVC,FEW,0.00,0.0,WeatherDisplay:10.37,2013-06-25 05:27:00,
2013-06-25 07:32:00,67.6,61.6,29.98,WSW,258,4.6,4.6,81,0.00,OVC,FEW,0.00,0.0,WeatherDisplay:10.37,2013-06-25 05:32:00,
2013-06-25 07:37:00,67.5,61.8,29.99,West,265,4.6,4.6,82,0.00,OVC,FEW,0.00,0.0,WeatherDisplay:10.37,2013-06-25 05:37:00,
2013-06-25 07:42:00,68.0,61.9,29.99,WSW,247,4.6,4.6,81,0.00,OVC,FEW,0.00,0.0,WeatherDisplay:10.37,2013-06-25 05:42:00,
2013-06-25 07:47:00,68.2,61.4,29.99,West,271,6.9,6.9,79,0.00,OVC,FEW,0.00,0.0,WeatherDisplay:10.37,2013-06-25 05:47:00,
2013-06-25 07:52:00,68.2,60.3,29.99,NW,306,4.6,4.6,76,0.00,OVC,FEW,0.00,0.0,WeatherDisplay:10.37,2013-06-25 05:52:00,
2013-06-25 07:57:00,69.4,61.1,29.99,NW,305,3.5,3.5,75,0.00,OVC,FEW,0.00,0.0,WeatherDisplay:10.37,2013-06-25 05:57:00,
2013-06-25 08:02:00,69.4,60.4,29.99,WSW,257,4.6,4.6,73,0.00,OVC,FEW,0.00,0.0,WeatherDisplay:10.37,2013-06-25 06:02:00,
2013-06-25 08:07:00,69.1,59.3,29.99,West,271,5.8,5.8,71,0.00,OVC,FEW,0.00,0.0,WeatherDisplay:10.37,2013-06-25 06:07:00,
2013-06-25 08:12:00,68.3,59.3,29.99,North,355,3.5,3.5,73,0.00,OVC,FEW,0.00,0.0,WeatherDisplay:10.37,2013-06-25 06:12:00,
2013-06-25 08:17:00,68.5,59.5,29.99,NW,314,3.5,3.5,73,0.00,OVC,FEW,0.00,0.0,WeatherDisplay:10.37,2013-06-25 06:17:00,
2013-06-25 08:22:00,67.9,59.7,29.99,WSW,257,4.0,4.0,75,0.00,OVC,FEW,0.00,0.0,WeatherDisplay:10.37,2013-06-25 06:22:00,
2013-06-25 08:27:00,67.4,59.6,29.99,WSW,246,3.0,3.0,76,0.00,OVC,FEW,0.00,0.0,WeatherDisplay:10.37,2013-06-25 06:27:00,
2013-06-25 08:32:00,67.7,59.9,29.99,West,263,5.8,5.8,76,0.00,OVC,FEW,0.00,0.0,WeatherDisplay:10.37,2013-06-25 06:32:00,
2013-06-25 08:37:00,68.3,60.1,29.99,West,259,5.8,5.8,75,0.00,OVC,FEW,0.00,0.0,WeatherDisplay:10.37,2013-06-25 06:37:00,
2013-06-25 08:42:00,68.0,60.2,29.99,West,277,4.6,4.6,76,0.00,OVC,FEW,0.00,0.0,WeatherDisplay:10.37,2013-06-25 06:42:00,
2013-06-25 08:47:00,68.5,59.5,30.00,West,271,5.0,5.0,73,0.00,OVC,FEW,0.00,0.0,WeatherDisplay:10.37,2013-06-25 06:47:00,
2013-06-25 08:52:00,68.0,58.6,30.00,WSW,257,3.5,3.5,72,0.00,OVC,FEW,0.00,0.0,WeatherDisplay:10.37,2013-06-25 06:52:00,
2013-06-25 08:57:00,68.5,59.1,29.99,West,269,6.9,6.9,72,0.00,OVC,FEW,0.00,0.0,WeatherDisplay:10.37,2013-06-25 06:57:00,
2013-06-25 09:02:00,69.4,58.8,29.99,West,265,6.9,6.9,69,0.00,OVC,FEW,0.00,0.0,WeatherDisplay:10.37,2013-06-25 07:02:00,
2013-06-25 09:07:00,69.9,58.4,30.00,West,272,6.9,6.9,67,0.00,OVC,FEW,0.00,0.0,WeatherDisplay:10.37,2013-06-25 07:07:00,
2013-06-25 09:12:00,69.3,57.9,30.00,West,279,6.9,6.9,67,0.00,OVC,FEW,0.00,0.0,WeatherDisplay:10.37,2013-06-25 07:12:00,
2013-06-25 09:17:00,69.7,58.7,30.00,West,262,4.6,4.6,68,0.00,OVC,FEW,0.00,0.0,WeatherDisplay:10.37,2013-06-25 07:17:00,
2013-06-25 09:22:00,70.3,59.6,30.00,NW,322,5.0,5.0,69,0.00,OVC,FEW,0.00,0.0,WeatherDisplay:10.37,2013-06-25 07:22:00,
2013-06-25 09:27:00,69.6,59.8,30.00,WNW,297,3.5,3.5,71,0.00,OVC,FEW,0.00,0.0,WeatherDisplay:10.37,2013-06-25 07:27:00,
2013-06-25 09:32:00,70.4,60.5,30.00,West,270,3.5,3.5,71,0.00,OVC,FEW,0.00,0.0,WeatherDisplay:10.37,2013-06-25 07:32:00,
2013-06-25 09:37:00,70.8,60.1,29.99,West,263,3.5,3.5,69,0.00,OVC,FEW,0.00,0.0,WeatherDisplay:10.37,2013-06-25 07:37:00,
2013-06-25 09:42:00,69.5,59.7,30.00,WNW,298,3.5,3.5,71,0.00,OVC,FEW,0.00,0.0,WeatherDisplay:10.37,2013-06-25 07:42:00,
2013-06-25 09:47:00,69.8,59.2,30.00,WNW,294,6.9,6.9,69,0.00,OVC,FEW,0.00,0.0,WeatherDisplay:10.37,2013-06-25 07:47:00,
2013-06-25 09:52:00,70.0,59.0,30.00,WSW,257,5.8,5.8,68,0.00,OVC,FEW,0.00,0.0,WeatherDisplay:10.37,2013-06-25 07:52:00,
2013-06-25 09:57:00,70.4,59.3,29.99,West,271,4.6,4.6,68,0.00,OVC,FEW,0.00,0.0,WeatherDisplay:10.37,2013-06-25 07:57:00,
2013-06-25 10:02:00,70.3,59.2,30.00,WSW,249,4.6,4.6,68,0.00,OVC,FEW,0.00,0.0,WeatherDisplay:10.37,2013-06-25 08:02:00,
2013-06-25 10:07:00,71.1,60.4,30.00,WNW,293,6.9,6.9,69,0.00,OVC,FEW,0.00,0.0,WeatherDisplay:10.37,2013-06-25 08:07:00,
2013-06-25 10:12:00,70.4,60.1,30.00,West,273,8.1,8.1,70,0.00,OVC,FEW,0.00,0.0,WeatherDisplay:10.37,2013-06-25 08:12:00,
2013-06-25 10:17:00,70.5,59.8,30.00,WNW,287,6.9,6.9,69,0.00,OVC,FEW,0.00,0.0,WeatherDisplay:10.37,2013-06-25 08:17:00,
2013-06-25 10:22:00,70.5,59.8,30.00,WNW,291,8.1,8.1,69,0.00,OVC,FEW,0.00,0.0,WeatherDisplay:10.37,2013-06-25 08:22:00,
2013-06-25 10:27:00,70.4,60.1,30.00,West,270,5.8,5.8,70,0.00,OVC,FEW,0.00,0.0,WeatherDisplay:10.37,2013-06-25 08:27:00,
2013-06-25 10:32:00,71.2,60.9,30.00,WSW,258,6.9,6.9,70,0.00,OVC,FEW,0.00,0.0,WeatherDisplay:10.37,2013-06-25 08:32:00,
2013-06-25 10:37:00,71.0,59.9,30.00,West,273,7.0,7.0,68,0.00,OVC,FEW,0.00,0.0,WeatherDisplay:10.37,2013-06-25 08:37:00,
2013-06-25 10:42:00,70.3,60.4,30.00,WNW,299,8.1,8.1,71,0.00,OVC,FEW,0.00,0.0,WeatherDisplay:10.37,2013-06-25 08:42:00,
2013-06-25 10:47:00,70.8,60.9,30.00,West,259,8.1,8.1,71,0.00,OVC,FEW,0.00,0.0,WeatherDisplay:10.37,2013-06-25 08:47:00,
2013-06-25 10:52:00,70.8,60.9,30.00,WNW,288,6.9,6.9,71,0.00,OVC,FEW,0.00,0.0,WeatherDisplay:10.37,2013-06-25 08:52:00,
2013-06-25 10:57:00,70.6,60.7,30.00,NW,305,8.1,8.1,71,0.00,OVC,FEW,0.00,0.0,WeatherDisplay:10.37,2013-06-25 08:57:00,
2013-06-25 11:02:00,71.0,61.1,30.00,West,274,9.2,9.2,71,0.00,OVC,FEW,0.00,0.0,WeatherDisplay:10.37,2013-06-25 09:02:00,
2013-06-25 11:07:00,70.8,60.9,30.00,WNW,290,10.4,10.4,71,0.00,OVC,FEW,0.00,0.0,WeatherDisplay:10.37,2013-06-25 09:07:00,
2013-06-25 11:12:00,71.7,61.8,30.00,SW,232,7.0,7.0,71,0.00,OVC,FEW,0.00,0.0,WeatherDisplay:10.37,2013-06-25 09:12:00,
2013-06-25 11:17:00,71.1,60.4,30.00,SW,227,8.1,8.1,69,0.00,OVC,FEW,0.00,0.0,WeatherDisplay:10.37,2013-06-25 09:17:00,
2013-06-25 11:22:00,71.5,61.6,30.00,NNW,343,8.1,8.1,71,0.00,OVC,FEW,0.00,0.0,WeatherDisplay:10.37,2013-06-25 09:22:00,
2013-06-25 11:27:00,71.7,61.0,30.00,SW,225,10.4,10.4,69,0.00,OVC,FEW,0.00,0.0,WeatherDisplay:10.37,2013-06-25 09:27:00,
2013-06-25 11:32:00,71.5,61.2,30.00,West,278,9.0,9.0,70,0.00,OVC,FEW,0.00,0.0,WeatherDisplay:10.37,2013-06-25 09:32:00,
2013-06-25 11:37:00,71.4,61.1,30.01,WSW,250,4.6,4.6,70,0.00,OVC,FEW,0.00,0.0,WeatherDisplay:10.37,2013-06-25 09:37:00,
2013-06-25 11:42:00,71.8,61.5,30.01,West,279,9.2,9.2,70,0.00,OVC,FEW,0.00,0.0,WeatherDisplay:10.37,2013-06-25 09:42:00,
2013-06-25 11:47:00,72.1,61.4,30.01,NW,305,6.9,6.9,69,0.00,OVC,FEW,0.00,0.0,WeatherDisplay:10.37,2013-06-25 09:47:00,
2013-06-25 11:52:00,71.5,61.2,30.01,WSW,254,8.1,8.1,70,0.00,OVC,FEW,0.00,0.0,WeatherDisplay:10.37,2013-06-25 09:52:00,
2013-06-25 11:57:00,71.5,61.6,30.01,WNW,282,9.2,9.2,71,0.00,OVC,FEW,0.00,0.0,WeatherDisplay:10.37,2013-06-25 09:57:00,
2013-06-25 12:02:00,71.2,61.3,30.01,West,265,10.4,10.4,71,0.00,OVC,FEW,0.00,0.0,WeatherDisplay:10.37,2013-06-25 10:02:00,
2013-06-25 12:07:00,71.9,61.6,30.00,NW,309,6.0,6.0,70,0.00,OVC,FEW,0.00,0.0,WeatherDisplay:10.37,2013-06-25 10:07:00,
2013-06-25 12:12:00,72.3,62.4,30.00,WSW,257,5.8,5.8,71,0.00,OVC,FEW,0.00,0.0,WeatherDisplay:10.37,2013-06-25 10:12:00,
2013-06-25 12:17:00,72.0,60.9,30.01,West,277,8.1,8.1,68,0.00,OVC,FEW,0.00,0.0,WeatherDisplay:10.37,2013-06-25 10:17:00,
2013-06-25 12:23:00,71.9,62.0,30.00,North,351,8.1,8.1,71,0.00,OVC,FEW,0.00,0.0,WeatherDisplay:10.37,2013-06-25 10:23:00,
2013-06-25 12:28:00,72.0,61.7,30.01,NW,323,8.1,8.1,70,0.00,OVC,FEW,0.00,0.0,WeatherDisplay:10.37,2013-06-25 10:28:00,
2013-06-25 12:33:00,71.4,61.1,30.01,West,264,8.1,8.1,70,0.00,OVC,FEW,0.00,0.0,WeatherDisplay:10.37,2013-06-25 10:33:00,
2013-06-25 12:38:00,71.1,61.2,30.01,NNW,331,6.9,6.9,71,0.00,OVC,FEW,0.00,0.0,WeatherDisplay:10.37,2013-06-25 10:38:00,
2013-06-25 12:43:00,71.1,60.8,30.01,WNW,295,8.1,8.1,70,0.00,OVC,FEW,0.00,0.0,WeatherDisplay:10.37,2013-06-25 10:43:00,
2013-06-25 12:48:00,71.8,61.5,30.01,West,266,10.4,10.4,70,0.00,OVC,FEW,0.00,0.0,WeatherDisplay:10.37,2013-06-25 10:48:00,
2013-06-25 12:53:00,71.8,61.5,30.01,WNW,285,9.2,9.2,70,0.00,OVC,FEW,0.00,0.0,WeatherDisplay:10.37,2013-06-25 10:53:00,
2013-06-25 12:58:00,71.6,60.9,30.01,West,279,9.2,9.2,69,0.00,OVC,FEW,0.00,0.0,WeatherDisplay:10.37,2013-06-25 10:58:00,
2013-06-25 13:03:00,71.5,60.4,30.01,West,262,9.2,9.2,68,0.00,OVC,FEW,0.00,0.0,WeatherDisplay:10.37,2013-06-25 11:03:00,
2013-06-25 13:08:00,72.5,60.9,30.01,West,281,9.2,9.2,67,0.00,OVC,FEW,0.00,0.0,WeatherDisplay:10.37,2013-06-25 11:08:00,
2013-06-25 13:13:00,71.7,61.0,30.01,WNW,297,10.4,10.4,69,0.00,OVC,FEW,0.00,0.0,WeatherDisplay:10.37,2013-06-25 11:13:00,
2013-06-25 13:18:00,71.3,59.8,30.01,WSW,257,8.1,8.1,67,0.00,OVC,FEW,0.00,0.0,WeatherDisplay:10.37,2013-06-25 11:18:00,
2013-06-25 13:23:00,71.4,60.7,30.01,WNW,297,9.2,9.2,69,0.00,OVC,FEW,0.00,0.0,WeatherDisplay:10.37,2013-06-25 11:23:00,
2013-06-25 13:28:00,71.4,60.3,30.01,West,269,11.5,11.5,68,0.00,OVC,FEW,0.00,0.0,WeatherDisplay:10.37,2013-06-25 11:28:00,
2013-06-25 13:33:00,71.5,60.4,30.01,WNW,290,5.8,5.8,68,0.00,OVC,FEW,0.00,0.0,WeatherDisplay:10.37,2013-06-25 11:33:00,
2013-06-25 13:38:00,71.4,59.4,30.01,WNW,287,12.7,12.7,66,0.00,OVC,FEW,0.00,0.0,WeatherDisplay:10.37,2013-06-25 11:38:00,
2013-06-25 13:43:00,72.7,61.1,30.01,West,281,5.8,5.8,67,0.00,OVC,FEW,0.00,0.0,WeatherDisplay:10.37,2013-06-25 11:43:00,
2013-06-25 13:48:00,73.3,61.7,30.00,West,276,11.5,11.5,67,0.00,OVC,FEW,0.00,0.0,WeatherDisplay:10.37,2013-06-25 11:48:00,
2013-06-25 13:53:00,72.0,60.4,30.01,WSW,246,9.2,9.2,67,0.00,OVC,FEW,0.00,0.0,WeatherDisplay:10.37,2013-06-25 11:53:00,
2013-06-25 13:58:00,72.5,61.3,30.01,WSW,238,10.4,10.4,68,0.00,OVC,FEW,0.00,0.0,WeatherDisplay:10.37,2013-06-25 11:58:00,
2013-06-25 14:03:00,71.9,61.2,30.01,WNW,298,8.1,8.1,69,0.00,OVC,FEW,0.00,0.0,WeatherDisplay:10.37,2013-06-25 12:03:00,
2013-06-25 14:08:00,72.0,60.4,30.01,West,270,9.2,9.2,67,0.00,OVC,FEW,0.00,0.0,WeatherDisplay:10.37,2013-06-25 12:08:00,
2013-06-25 14:13:00,72.4,61.2,30.01,WNW,292,8.1,8.1,68,0.00,OVC,FEW,0.00,0.0,WeatherDisplay:10.37,2013-06-25 12:13:00,
2013-06-25 14:18:00,72.2,61.0,30.01,West,265,10.4,10.4,68,0.00,OVC,FEW,0.00,0.0,WeatherDisplay:10.37,2013-06-25 12:18:00,
2013-06-25 14:23:00,72.7,61.5,30.01,WSW,249,6.9,6.9,68,0.00,OVC,FEW,0.00,0.0,WeatherDisplay:10.37,2013-06-25 12:23:00,
2013-06-25 14:28:00,72.7,61.5,30.01,WNW,287,9.2,9.2,68,0.00,OVC,FEW,0.00,0.0,WeatherDisplay:10.37,2013-06-25 12:28:00,
2013-06-25 14:33:00,72.5,61.3,30.01,West,279,8.1,8.1,68,0.00,OVC,FEW,0.00,0.0,WeatherDisplay:10.37,2013-06-25 12:33:00,
2013-06-25 14:38:00,72.4,61.2,30.01,SW,232,6.9,6.9,68,0.00,OVC,FEW,0.00,0.0,WeatherDisplay:10.37,2013-06-25 12:38:00,
2013-06-25 14:43:00,72.5,60.9,30.01,WSW,250,12.7,12.7,67,0.00,OVC,FEW,0.00,0.0,WeatherDisplay:10.37,2013-06-25 12:43:00,
2013-06-25 14:48:00,72.2,61.5,30.01,WNW,282,8.1,8.1,69,0.00,OVC,FEW,0.00,0.0,WeatherDisplay:10.37,2013-06-25 12:48:00,
2013-06-25 14:53:00,72.1,61.4,30.01,West,269,9.2,9.2,69,0.00,OVC,FEW,0.00,0.0,WeatherDisplay:10.37,2013-06-25 12:53:00,
2013-06-25 14:58:00,71.7,61.0,30.01,West,281,5.8,5.8,69,0.00,OVC,FEW,0.00,0.0,WeatherDisplay:10.37,2013-06-25 12:58:00,
2013-06-25 15:03:00,72.7,61.5,30.01,WSW,252,9.0,9.0,68,0.00,OVC,FEW,0.00,0.0,WeatherDisplay:10.37,2013-06-25 13:03:00,
2013-06-25 15:09:00,73.3,62.1,30.01,WNW,286,5.8,5.8,68,0.00,OVC,FEW,0.00,0.0,WeatherDisplay:10.37,2013-06-25 13:09:00,
2013-06-25 15:14:00,73.1,62.3,30.01,West,259,6.9,6.9,69,0.00,OVC,FEW,0.00,0.0,WeatherDisplay:10.37,2013-06-25 13:14:00,
2013-06-25 15:15:00,73.2,62.4,30.01,WSW,238,8.1,8.1,69,0.00,OVC,FEW,0.00,0.0,WeatherDisplay:10.37,2013-06-25 13:15:00,
2013-06-25 15:20:00,73.1,62.7,30.01,WNW,296,9.2,9.2,70,0.00,OVC,FEW,0.00,0.0,WeatherDisplay:10.37,2013-06-25 13:20:00,
2013-06-25 15:25:00,72.8,62.0,30.01,SSW,213,9.0,9.0,69,0.00,OVC,FEW,0.00,0.0,WeatherDisplay:10.37,2013-06-25 13:25:00,
2013-06-25 15:31:00,72.7,61.9,30.01,SW,226,10.4,10.4,69,0.00,OVC,FEW,0.00,0.0,WeatherDisplay:10.37,2013-06-25 13:31:00,
2013-06-25 15:36:00,72.6,62.3,30.01,WSW,252,11.5,11.5,70,0.00,OVC,FEW,0.00,0.0,WeatherDisplay:10.37,2013-06-25 13:36:00,
2013-06-25 15:41:00,72.5,62.2,30.01,West,277,11.5,11.5,70,0.00,OVC,FEW,0.00,0.0,WeatherDisplay:10.37,2013-06-25 13:41:00,
2013-06-25 15:46:00,71.8,62.3,30.01,West,277,10.4,10.4,72,0.00,OVC,FEW,0.00,0.0,WeatherDisplay:10.37,2013-06-25 13:46:00,
2013-06-25 15:51:00,72.0,62.1,30.01,WSW,255,12.0,12.0,71,0.00,OVC,FEW,0.00,0.0,WeatherDisplay:10.37,2013-06-25 13:51:00,
2013-06-25 15:56:00,71.9,62.4,30.01,WSW,258,11.5,11.5,72,0.00,OVC,FEW,0.00,0.0,WeatherDisplay:10.37,2013-06-25 13:56:00,
2013-06-25 16:01:00,72.5,62.6,30.01,WSW,251,8.1,8.1,71,0.00,OVC,FEW,0.00,0.0,WeatherDisplay:10.37,2013-06-25 14:01:00,
2013-06-25 16:06:00,72.3,62.4,30.01,NW,318,12.7,12.7,71,0.00,OVC,FEW,0.00,0.0,WeatherDisplay:10.37,2013-06-25 14:06:00,
2013-06-25 16:11:00,72.5,62.9,30.01,West,281,8.1,8.1,72,0.00,OVC,FEW,0.00,0.0,WeatherDisplay:10.37,2013-06-25 14:11:00,
2013-06-25 16:16:00,72.0,61.7,30.01,West,263,12.0,12.0,70,0.00,OVC,FEW,0.00,0.0,WeatherDisplay:10.37,2013-06-25 14:16:00,
2013-06-25 16:21:00,71.8,62.3,30.01,SW,225,11.5,11.5,72,0.00,OVC,FEW,0.00,0.0,WeatherDisplay:10.37,2013-06-25 14:21:00,
2013-06-25 16:26:00,72.4,62.5,30.01,West,271,8.1,8.1,71,0.00,OVC,FEW,0.00,0.0,WeatherDisplay:10.37,2013-06-25 14:26:00,
2013-06-25 16:31:00,72.1,61.8,30.01,West,267,10.4,10.4,70,0.00,OVC,FEW,0.00,0.0,WeatherDisplay:10.37,2013-06-25 14:31:00,
2013-06-25 16:36:00,72.3,62.8,30.01,WSW,252,5.0,5.0,72,0.00,OVC,FEW,0.00,0.0,WeatherDisplay:10.37,2013-06-25 14:36:00,
2013-06-25 16:41:00,72.2,62.3,30.01,West,265,10.4,10.4,71,0.00,OVC,FEW,0.00,0.0,WeatherDisplay:10.37,2013-06-25 14:41:00,
2013-06-25 16:46:00,72.0,62.5,30.01,West,275,6.9,6.9,72,0.00,OVC,FEW,0.00,0.0,WeatherDisplay:10.37,2013-06-25 14:46:00,
2013-06-25 16:51:00,72.2,62.7,30.02,WNW,298,7.0,7.0,72,0.00,OVC,FEW,0.00,0.0,WeatherDisplay:10.37,2013-06-25 14:51:00,
2013-06-25 16:56:00,71.9,62.0,30.02,WNW,301,8.1,8.1,71,0.00,OVC,FEW,0.00,0.0,WeatherDisplay:10.37,2013-06-25 14:56:00,
2013-06-25 17:01:00,71.7,62.2,30.02,SW,215,6.9,6.9,72,0.00,OVC,FEW,0.00,0.0,WeatherDisplay:10.37,2013-06-25 15:01:00,
2013-06-25 17:06:00,71.7,61.4,30.02,West,273,9.0,9.0,70,0.00,OVC,FEW,0.00,0.0,WeatherDisplay:10.37,2013-06-25 15:06:00,
2013-06-25 17:11:00,71.7,62.2,30.01,WNW,298,8.1,8.1,72,0.00,OVC,FEW,0.00,0.0,WeatherDisplay:10.37,2013-06-25 15:11:00,
2013-06-25 17:16:00,71.4,61.9,30.02,West,273,11.5,11.5,72,0.00,OVC,FEW,0.00,0.0,WeatherDisplay:10.37,2013-06-25 15:16:00,
2013-06-25 17:21:00,71.4,61.9,30.02,WSW,241,11.0,11.0,72,0.00,OVC,FEW,0.00,0.0,WeatherDisplay:10.37,2013-06-25 15:21:00,
2013-06-25 17:26:00,71.6,62.5,30.01,WSW,252,6.9,6.9,73,0.00,OVC,FEW,0.00,0.0,WeatherDisplay:10.37,2013-06-25 15:26:00,
2013-06-25 17:31:00,71.8,61.5,30.01,WSW,258,10.4,10.4,70,0.00,OVC,FEW,0.00,0.0,WeatherDisplay:10.37,2013-06-25 15:31:00,
2013-06-25 17:36:00,70.7,61.2,30.01,West,277,10.4,10.4,72,0.00,OVC,FEW,0.00,0.0,WeatherDisplay:10.37,2013-06-25 15:36:00,
2013-06-25 17:41:00,71.1,62.0,30.01,WNW,298,8.1,8.1,73,0.00,OVC,FEW,0.00,0.0,WeatherDisplay:10.37,2013-06-25 15:41:00,
2013-06-25 17:46:00,71.6,62.1,30.01,WNW,294,6.9,6.9,72,0.00,OVC,FEW,0.00,0.0,WeatherDisplay:10.37,2013-06-25 15:46:00,
2013-06-25 17:51:00,71.7,62.2,30.01,WSW,239,5.8,5.8,72,0.00,OVC,FEW,0.00,0.0,WeatherDisplay:10.37,2013-06-25 15:51:00,
2013-06-25 17:56:00,71.4,61.9,30.01,WSW,246,8.1,8.1,72,0.00,OVC,FEW,0.00,0.0,WeatherDisplay:10.37,2013-06-25 15:56:00,
2013-06-25 18:01:00,71.1,61.2,30.01,West,261,8.1,8.1,71,0.00,OVC,FEW,0.00,0.0,WeatherDisplay:10.37,2013-06-25 16:01:00,
2013-06-25 18:06:00,70.8,61.7,30.01,West,273,9.2,9.2,73,0.00,OVC,FEW,0.00,0.0,WeatherDisplay:10.37,2013-06-25 16:06:00,
2013-06-25 18:11:00,71.3,62.2,30.01,West,259,5.8,5.8,73,0.00,OVC,FEW,0.00,0.0,WeatherDisplay:10.37,2013-06-25 16:11:00,
2013-06-25 18:16:00,71.4,61.5,30.00,WSW,258,9.2,9.2,71,0.00,OVC,FEW,0.00,0.0,WeatherDisplay:10.37,2013-06-25 16:16:00,
2013-06-25 18:21:00,71.2,61.7,30.01,WSW,238,5.0,5.0,72,0.00,OVC,FEW,0.00,0.0,WeatherDisplay:10.37,2013-06-25 16:21:00,
2013-06-25 18:26:00,70.9,61.4,30.01,West,281,6.9,6.9,72,0.00,OVC,FEW,0.00,0.0,WeatherDisplay:10.37,2013-06-25 16:26:00,
2013-06-25 18:31:00,70.9,61.8,30.01,WSW,247,4.6,4.6,73,0.00,OVC,FEW,0.00,0.0,WeatherDisplay:10.37,2013-06-25 16:31:00,
2013-06-25 18:36:00,71.0,61.9,30.01,WSW,257,4.6,4.6,73,0.00,OVC,FEW,0.00,0.0,WeatherDisplay:10.37,2013-06-25 16:36:00,
2013-06-25 18:41:00,70.9,61.8,30.01,West,262,5.0,5.0,73,0.00,OVC,FEW,0.00,0.0,WeatherDisplay:10.37,2013-06-25 16:41:00,
2013-06-25 18:46:00,70.3,61.2,30.01,West,266,5.8,5.8,73,0.00,OVC,FEW,0.00,0.0,WeatherDisplay:10.37,2013-06-25 16:46:00,
2013-06-25 18:51:00,70.2,61.1,30.01,WSW,248,6.0,6.0,73,0.00,OVC,FEW,0.00,0.0,WeatherDisplay:10.37,2013-06-25 16:51:00,
2013-06-25 18:56:00,70.3,61.6,30.01,WNW,285,6.0,6.0,74,0.00,OVC,FEW,0.00,0.0,WeatherDisplay:10.37,2013-06-25 16:56:00,
2013-06-25 19:01:00,70.2,61.5,30.01,WNW,298,5.8,5.8,74,0.00,OVC,FEW,0.00,0.0,WeatherDisplay:10.37,2013-06-25 17:01:00,
2013-06-25 19:06:00,70.1,61.0,30.01,WSW,252,9.2,9.2,73,0.00,OVC,FEW,0.00,0.0,WeatherDisplay:10.37,2013-06-25 17:06:00,
2013-06-25 19:11:00,70.0,61.3,30.01,West,259,3.5,3.5,74,0.00,OVC,FEW,0.00,0.0,WeatherDisplay:10.37,2013-06-25 17:11:00,
2013-06-25 19:16:00,69.9,61.2,30.01,WSW,240,4.6,4.6,74,0.00,OVC,FEW,0.00,0.0,WeatherDisplay:10.37,2013-06-25 17:16:00,
2013-06-25 19:21:00,69.8,61.5,30.02,West,260,3.5,3.5,75,0.00,OVC,FEW,0.00,0.0,WeatherDisplay:10.37,2013-06-25 17:21:00,
2013-06-25 19:26:00,69.8,61.1,30.01,WNW,290,4.0,4.0,74,0.00,OVC,FEW,0.00,0.0,WeatherDisplay:10.37,2013-06-25 17:26:00,
2013-06-25 19:31:00,69.6,61.3,30.02,WSW,254,3.5,3.5,75,0.00,OVC,FEW,0.00,0.0,WeatherDisplay:10.37,2013-06-25 17:31:00,
2013-06-25 19:36:00,69.3,60.7,30.02,West,271,3.5,3.5,74,0.00,OVC,FEW,0.00,0.0,WeatherDisplay:10.37,2013-06-25 17:36:00,
2013-06-25 19:41:00,69.5,60.8,30.02,West,271,3.5,3.5,74,0.00,OVC,FEW,0.00,0.0,WeatherDisplay:10.37,2013-06-25 17:41:00,
2013-06-25 19:46:00,69.4,60.8,30.02,West,271,3.0,3.0,74,0.00,OVC,FEW,0.00,0.0,WeatherDisplay:10.37,2013-06-25 17:46:00,
2013-06-25 19:52:00,69.0,60.7,30.02,West,271,3.5,3.5,75,0.00,OVC,FEW,0.00,0.0,WeatherDisplay:10.37,2013-06-25 17:52:00,
2013-06-25 19:57:00,68.9,61.0,30.02,West,271,2.3,2.3,76,0.00,OVC,FEW,0.00,0.0,WeatherDisplay:10.37,2013-06-25 17:57:00,
2013-06-25 20:02:00,68.5,61.0,30.02,West,271,3.5,3.5,77,0.00,OVC,FEW,0.00,0.0,WeatherDisplay:10.37,2013-06-25 18:02:00,
2013-06-25 20:07:00,68.4,60.9,30.02,West,271,3.5,3.5,77,0.00,OVC,FEW,0.00,0.0,WeatherDisplay:10.37,2013-06-25 18:07:00,
2013-06-25 20:12:00,68.4,61.3,30.02,West,271,1.2,1.2,78,0.00,OVC,FEW,0.00,0.0,WeatherDisplay:10.37,2013-06-25 18:12:00,
2013-06-25 20:17:00,68.1,60.6,30.02,West,271,3.5,3.5,77,0.00,OVC,FEW,0.00,0.0,WeatherDisplay:10.37,2013-06-25 18:17:00,
2013-06-25 20:22:00,67.9,60.8,30.02,West,271,1.2,0.0,78,0.00,OVC,FEW,0.00,0.0,WeatherDisplay:10.37,2013-06-25 18:22:00,
2013-06-25 20:27:00,67.8,60.7,30.02,West,271,1.2,1.2,78,0.00,OVC,FEW,0.00,0.0,WeatherDisplay:10.37,2013-06-25 18:27:00,
2013-06-25 20:32:00,67.5,60.4,30.02,West,271,1.2,1.2,78,0.00,OVC,FEW,0.00,0.0,WeatherDisplay:10.37,2013-06-25 18:32:00,
2013-06-25 20:37:00,67.2,60.5,30.02,West,271,0.0,0.0,79,0.00,OVC,FEW,0.00,0.0,WeatherDisplay:10.37,2013-06-25 18:37:00,
2013-06-25 20:42:00,67.0,60.6,30.02,West,271,0.0,0.0,80,0.00,OVC,FEW,0.00,0.0,WeatherDisplay:10.37,2013-06-25 18:42:00,
2013-06-25 20:47:00,66.7,60.3,30.02,West,271,0.0,0.0,80,0.00,OVC,FEW,0.00,0.0,WeatherDisplay:10.37,2013-06-25 18:47:00,
2013-06-25 20:52:00,66.2,60.2,30.03,West,271,3.5,3.5,81,0.00,OVC,FEW,0.00,0.0,WeatherDisplay:10.37,2013-06-25 18:52:00,
2013-06-25 21:01:00,65.6,60.0,30.03,West,271,0.0,0.0,82,0.00,CLR,FEW,0.00,0.0,WeatherDisplay:10.37,2013-06-25 19:01:00,
2013-06-25 21:06:00,65.4,60.1,30.03,West,271,1.2,0.0,83,0.00,CLR,FEW,0.00,0.0,WeatherDisplay:10.37,2013-06-25 19:06:00,
2013-06-25 21:11:00,65.3,60.3,30.03,West,271,0.0,0.0,84,0.00,CLR,FEW,0.00,0.0,WeatherDisplay:10.37,2013-06-25 19:11:00,
2013-06-25 21:16:00,65.2,60.2,30.03,West,271,0.0,0.0,84,0.00,CLR,FEW,0.00,0.0,WeatherDisplay:10.37,2013-06-25 19:16:00,
2013-06-25 21:22:00,65.1,60.1,30.03,West,271,2.3,2.3,84,0.00,CLR,FEW,0.00,0.0,WeatherDisplay:10.37,2013-06-25 19:22:00,
2013-06-25 21:27:00,65.1,60.1,30.04,West,271,1.2,0.0,84,0.00,CLR,FEW,0.00,0.0,WeatherDisplay:10.37,2013-06-25 19:27:00,
2013-06-25 21:33:00,65.0,60.4,30.04,West,271,0.0,0.0,85,0.00,CLR,FEW,0.00,0.0,WeatherDisplay:10.37,2013-06-25 19:33:00,
2013-06-25 21:38:00,64.9,60.3,30.04,West,271,1.2,0.0,85,0.00,CLR,FEW,0.00,0.0,WeatherDisplay:10.37,2013-06-25 19:38:00,
2013-06-25 21:43:00,64.9,60.3,30.04,West,271,0.0,0.0,85,0.00,CLR,FEW,0.00,0.0,WeatherDisplay:10.37,2013-06-25 19:43:00,
2013-06-25 21:48:00,64.9,60.3,30.04,West,271,0.0,0.0,85,0.00,CLR,FEW,0.00,0.0,WeatherDisplay:10.37,2013-06-25 19:48:00,
2013-06-25 21:53:00,64.7,60.1,30.04,West,271,0.0,0.0,85,0.00,CLR,FEW,0.00,0.0,WeatherDisplay:10.37,2013-06-25 19:53:00,
2013-06-25 21:58:00,64.6,60.3,30.04,West,271,0.0,0.0,86,0.00,CLR,FEW,0.00,0.0,WeatherDisplay:10.37,2013-06-25 19:58:00,
2013-06-25 22:03:00,64.7,60.4,30.05,West,271,0.0,0.0,86,0.00,CLR,FEW,0.00,0.0,WeatherDisplay:10.37,2013-06-25 20:03:00,
2013-06-25 22:08:00,64.7,60.4,30.05,West,271,1.2,1.2,86,0.00,CLR,FEW,0.00,0.0,WeatherDisplay:10.37,2013-06-25 20:08:00,
2013-06-25 22:13:00,64.7,60.4,30.05,West,271,0.0,0.0,86,0.00,CLR,FEW,0.00,0.0,WeatherDisplay:10.37,2013-06-25 20:13:00,
2013-06-25 22:18:00,64.6,60.3,30.05,West,271,0.0,0.0,86,0.00,CLR,FEW,0.00,0.0,WeatherDisplay:10.37,2013-06-25 20:18:00,
2013-06-25 22:23:00,64.5,60.2,30.05,West,271,0.0,0.0,86,0.00,CLR,FEW,0.00,0.0,WeatherDisplay:10.37,2013-06-25 20:23:00,
2013-06-25 22:28:00,64.5,60.2,30.05,West,271,1.2,0.0,86,0.00,CLR,FEW,0.00,0.0,WeatherDisplay:10.37,2013-06-25 20:28:00,
2013-06-25 22:33:00,64.4,60.1,30.05,West,271,0.0,0.1,86,0.00,CLR,FEW,0.00,0.0,WeatherDisplay:10.37,2013-06-25 20:33:00,
2013-06-25 22:38:00,64.3,60.3,30.05,West,271,1.2,1.2,87,0.00,CLR,FEW,0.00,0.0,WeatherDisplay:10.37,2013-06-25 20:38:00,
2013-06-25 22:43:00,64.2,60.2,30.05,West,271,0.0,0.0,87,0.00,CLR,FEW,0.00,0.0,WeatherDisplay:10.37,2013-06-25 20:43:00,
2013-06-25 22:48:00,64.3,60.3,30.05,West,271,0.0,0.0,87,0.00,CLR,FEW,0.00,0.0,WeatherDisplay:10.37,2013-06-25 20:48:00,
2013-06-25 22:53:00,64.3,60.3,30.05,West,271,0.0,0.0,87,0.00,CLR,FEW,0.00,0.0,WeatherDisplay:10.37,2013-06-25 20:53:00,
2013-06-25 22:58:00,64.2,60.2,30.05,West,271,0.0,0.0,87,0.00,CLR,FEW,0.00,0.0,WeatherDisplay:10.37,2013-06-25 20:58:00,
2013-06-25 23:03:00,64.3,60.3,30.05,West,271,1.2,0.0,87,0.00,CLR,FEW,0.00,0.0,WeatherDisplay:10.37,2013-06-25 21:03:00,
2013-06-25 23:08:00,64.2,60.2,30.05,West,271,0.0,0.0,87,0.00,CLR,FEW,0.00,0.0,WeatherDisplay:10.37,2013-06-25 21:08:00,
2013-06-25 23:13:00,64.2,60.6,30.05,West,271,0.0,0.0,88,0.00,CLR,FEW,0.00,0.0,WeatherDisplay:10.37,2013-06-25 21:13:00,
2013-06-25 23:18:00,64.1,60.5,30.05,West,271,1.2,0.0,88,0.00,CLR,FEW,0.00,0.0,WeatherDisplay:10.37,2013-06-25 21:18:00,
2013-06-25 23:23:00,64.1,60.5,30.06,West,271,0.0,0.0,88,0.00,CLR,FEW,0.00,0.0,WeatherDisplay:10.37,2013-06-25 21:23:00,
2013-06-25 23:28:00,64.1,60.5,30.06,West,271,1.2,0.0,88,0.00,CLR,FEW,0.00,0.0,WeatherDisplay:10.37,2013-06-25 21:28:00,
2013-06-25 23:33:00,64.1,60.5,30.05,West,271,1.2,0.0,88,0.00,CLR,FEW,0.00,0.0,WeatherDisplay:10.37,2013-06-25 21:33:00,
2013-06-25 23:38:00,64.1,60.5,30.05,West,271,1.2,0.0,88,0.00,CLR,FEW,0.00,0.0,WeatherDisplay:10.37,2013-06-25 21:38:00,
2013-06-25 23:43:00,64.1,60.5,30.06,West,271,1.2,0.0,88,0.00,CLR,FEW,0.00,0.0,WeatherDisplay:10.37,2013-06-25 21:43:00,
2013-06-25 23:48:00,64.0,60.4,30.06,West,271,1.2,0.0,88,0.00,CLR,FEW,0.00,0.0,WeatherDisplay:10.37,2013-06-25 21:48:00,
2013-06-25 23:53:00,63.9,60.3,30.06,West,271,1.2,0.0,88,0.00,CLR,FEW,0.00,0.0,WeatherDisplay:10.37,2013-06-25 21:53:00,